sensor_id;sensor_type;location;lat;lon;timestamp;temperature;humidity
27200;DHT22;14714;48.106;11.546;2023-07-20T00:00:04;20.50;75.10
27200;DHT22;14714;48.106;11.546;2023-07-20T00:02:50;20.50;75.40
27200;DHT22;14714;48.106;11.546;2023-07-20T00:05:18;20.50;75.50
27200;DHT22;14714;48.106;11.546;2023-07-20T00:07:48;20.60;75.10
27200;DHT22;14714;48.106;11.546;2023-07-20T00:10:18;20.50;76.20
27200;DHT22;14714;48.106;11.546;2023-07-20T00:12:45;20.50;76.20
27200;DHT22;14714;48.106;11.546;2023-07-20T00:15:14;20.40;76.00
27200;DHT22;14714;48.106;11.546;2023-07-20T00:17:41;20.40;76.10
27200;DHT22;14714;48.106;11.546;2023-07-20T00:20:09;20.30;76.20
27200;DHT22;14714;48.106;11.546;2023-07-20T00:22:36;20.30;76.90
27200;DHT22;14714;48.106;11.546;2023-07-20T00:25:03;20.30;76.80
27200;DHT22;14714;48.106;11.546;2023-07-20T00:27:30;20.20;76.90
27200;DHT22;14714;48.106;11.546;2023-07-20T00:29:57;20.10;77.60
27200;DHT22;14714;48.106;11.546;2023-07-20T00:32:24;20.10;78.60
27200;DHT22;14714;48.106;11.546;2023-07-20T00:34:51;20.00;78.60
27200;DHT22;14714;48.106;11.546;2023-07-20T00:37:17;20.00;78.60
27200;DHT22;14714;48.106;11.546;2023-07-20T00:39:44;19.90;78.90
27200;DHT22;14714;48.106;11.546;2023-07-20T00:42:11;19.90;79.40
27200;DHT22;14714;48.106;11.546;2023-07-20T00:44:38;19.80;79.80
27200;DHT22;14714;48.106;11.546;2023-07-20T00:47:05;19.80;79.80
27200;DHT22;14714;48.106;11.546;2023-07-20T00:49:32;19.80;80.00
27200;DHT22;14714;48.106;11.546;2023-07-20T00:52:00;19.80;80.10
27200;DHT22;14714;48.106;11.546;2023-07-20T00:54:27;19.80;80.90
27200;DHT22;14714;48.106;11.546;2023-07-20T00:56:54;19.90;80.10
27200;DHT22;14714;48.106;11.546;2023-07-20T00:59:21;19.90;79.60
27200;DHT22;14714;48.106;11.546;2023-07-20T01:01:48;19.90;80.60
27200;DHT22;14714;48.106;11.546;2023-07-20T01:04:15;20.00;82.70
27200;DHT22;14714;48.106;11.546;2023-07-20T01:07:08;20.00;82.40
27200;DHT22;14714;48.106;11.546;2023-07-20T01:12:41;20.10;80.70
27200;DHT22;14714;48.106;11.546;2023-07-20T01:15:09;20.10;81.10
27200;DHT22;14714;48.106;11.546;2023-07-20T01:17:36;20.10;80.70
27200;DHT22;14714;48.106;11.546;2023-07-20T01:20:03;20.10;80.00
27200;DHT22;14714;48.106;11.546;2023-07-20T01:33:27;20.00;80.70
27200;DHT22;14714;48.106;11.546;2023-07-20T01:35:56;20.00;81.60
27200;DHT22;14714;48.106;11.546;2023-07-20T01:38:24;20.00;80.50
27200;DHT22;14714;48.106;11.546;2023-07-20T01:40:51;20.00;81.50
27200;DHT22;14714;48.106;11.546;2023-07-20T01:43:18;20.00;81.90
27200;DHT22;14714;48.106;11.546;2023-07-20T01:45:45;20.00;81.90
27200;DHT22;14714;48.106;11.546;2023-07-20T01:48:12;20.00;81.30
27200;DHT22;14714;48.106;11.546;2023-07-20T01:50:39;20.00;81.10
27200;DHT22;14714;48.106;11.546;2023-07-20T01:53:06;20.00;82.40
27200;DHT22;14714;48.106;11.546;2023-07-20T01:55:32;19.90;81.40
27200;DHT22;14714;48.106;11.546;2023-07-20T01:57:59;19.90;81.60
27200;DHT22;14714;48.106;11.546;2023-07-20T02:00:27;19.90;80.70
27200;DHT22;14714;48.106;11.546;2023-07-20T02:02:54;19.90;81.00
27200;DHT22;14714;48.106;11.546;2023-07-20T02:05:21;19.90;81.40
27200;DHT22;14714;48.106;11.546;2023-07-20T02:07:48;19.90;81.90
27200;DHT22;14714;48.106;11.546;2023-07-20T02:10:15;19.90;81.90
27200;DHT22;14714;48.106;11.546;2023-07-20T02:12:42;19.80;81.80
27200;DHT22;14714;48.106;11.546;2023-07-20T02:15:10;19.80;81.80
27200;DHT22;14714;48.106;11.546;2023-07-20T02:17:36;19.80;81.90
27200;DHT22;14714;48.106;11.546;2023-07-20T02:20:06;19.80;80.70
27200;DHT22;14714;48.106;11.546;2023-07-20T02:22:38;19.80;80.50
27200;DHT22;14714;48.106;11.546;2023-07-20T02:25:06;19.80;81.10
27200;DHT22;14714;48.106;11.546;2023-07-20T02:27:37;19.80;81.50
27200;DHT22;14714;48.106;11.546;2023-07-20T02:30:04;19.80;83.00
27200;DHT22;14714;48.106;11.546;2023-07-20T02:32:31;19.80;81.50
27200;DHT22;14714;48.106;11.546;2023-07-20T02:34:58;19.80;80.20
27200;DHT22;14714;48.106;11.546;2023-07-20T02:37:25;19.80;81.00
27200;DHT22;14714;48.106;11.546;2023-07-20T02:39:52;19.80;81.40
27200;DHT22;14714;48.106;11.546;2023-07-20T02:42:19;19.80;80.30
27200;DHT22;14714;48.106;11.546;2023-07-20T02:44:46;19.80;80.20
27200;DHT22;14714;48.106;11.546;2023-07-20T02:47:13;19.70;81.00
27200;DHT22;14714;48.106;11.546;2023-07-20T02:49:40;19.70;80.90
27200;DHT22;14714;48.106;11.546;2023-07-20T02:52:07;19.70;80.30
27200;DHT22;14714;48.106;11.546;2023-07-20T02:54:33;19.70;81.50
27200;DHT22;14714;48.106;11.546;2023-07-20T02:57:00;19.70;81.70
27200;DHT22;14714;48.106;11.546;2023-07-20T02:59:28;19.70;83.90
27200;DHT22;14714;48.106;11.546;2023-07-20T03:01:55;19.70;85.30
27200;DHT22;14714;48.106;11.546;2023-07-20T03:04:26;19.70;88.50
27200;DHT22;14714;48.106;11.546;2023-07-20T03:06:53;19.60;90.00
27200;DHT22;14714;48.106;11.546;2023-07-20T03:09:20;19.50;90.70
27200;DHT22;14714;48.106;11.546;2023-07-20T03:11:47;19.40;91.20
27200;DHT22;14714;48.106;11.546;2023-07-20T03:14:13;19.20;91.50
27200;DHT22;14714;48.106;11.546;2023-07-20T03:16:40;19.00;92.20
27200;DHT22;14714;48.106;11.546;2023-07-20T03:19:07;19.00;93.00
27200;DHT22;14714;48.106;11.546;2023-07-20T03:21:34;18.90;93.50
27200;DHT22;14714;48.106;11.546;2023-07-20T03:24:01;18.70;93.30
27200;DHT22;14714;48.106;11.546;2023-07-20T03:26:28;18.60;94.50
27200;DHT22;14714;48.106;11.546;2023-07-20T03:28:54;18.60;96.00
27200;DHT22;14714;48.106;11.546;2023-07-20T03:31:21;18.50;96.70
27200;DHT22;14714;48.106;11.546;2023-07-20T03:33:48;18.40;97.50
27200;DHT22;14714;48.106;11.546;2023-07-20T03:36:15;18.40;97.70
27200;DHT22;14714;48.106;11.546;2023-07-20T03:38:42;18.40;98.50
27200;DHT22;14714;48.106;11.546;2023-07-20T03:41:08;18.30;98.90
27200;DHT22;14714;48.106;11.546;2023-07-20T03:43:35;18.20;99.40
27200;DHT22;14714;48.106;11.546;2023-07-20T03:46:02;18.20;99.90
27200;DHT22;14714;48.106;11.546;2023-07-20T03:48:34;18.20;99.90
27200;DHT22;14714;48.106;11.546;2023-07-20T03:51:01;18.20;99.90
27200;DHT22;14714;48.106;11.546;2023-07-20T03:53:28;18.10;99.90
27200;DHT22;14714;48.106;11.546;2023-07-20T03:55:54;18.10;99.90
27200;DHT22;14714;48.106;11.546;2023-07-20T03:58:22;18.10;99.90
27200;DHT22;14714;48.106;11.546;2023-07-20T04:00:50;18.00;99.90
27200;DHT22;14714;48.106;11.546;2023-07-20T04:03:19;18.00;99.90
27200;DHT22;14714;48.106;11.546;2023-07-20T04:05:46;18.00;99.90
27200;DHT22;14714;48.106;11.546;2023-07-20T04:08:13;18.00;99.90
27200;DHT22;14714;48.106;11.546;2023-07-20T04:10:42;18.00;99.90
27200;DHT22;14714;48.106;11.546;2023-07-20T04:13:09;18.00;99.90
27200;DHT22;14714;48.106;11.546;2023-07-20T04:15:36;18.00;99.90
27200;DHT22;14714;48.106;11.546;2023-07-20T04:18:03;18.00;99.90
27200;DHT22;14714;48.106;11.546;2023-07-20T04:20:31;18.00;99.90
27200;DHT22;14714;48.106;11.546;2023-07-20T04:22:58;18.00;99.90
27200;DHT22;14714;48.106;11.546;2023-07-20T04:25:24;18.00;99.90
27200;DHT22;14714;48.106;11.546;2023-07-20T04:27:52;18.00;99.90
27200;DHT22;14714;48.106;11.546;2023-07-20T04:30:20;18.00;99.90
27200;DHT22;14714;48.106;11.546;2023-07-20T04:32:48;18.10;99.90
27200;DHT22;14714;48.106;11.546;2023-07-20T04:38:11;18.10;99.90
27200;DHT22;14714;48.106;11.546;2023-07-20T04:40:38;18.20;99.90
27200;DHT22;14714;48.106;11.546;2023-07-20T04:43:05;18.10;99.90
27200;DHT22;14714;48.106;11.546;2023-07-20T04:45:32;18.20;99.90
27200;DHT22;14714;48.106;11.546;2023-07-20T04:47:59;18.20;99.90
27200;DHT22;14714;48.106;11.546;2023-07-20T04:50:26;18.30;99.90
27200;DHT22;14714;48.106;11.546;2023-07-20T04:52:53;18.30;99.90
27200;DHT22;14714;48.106;11.546;2023-07-20T04:55:19;18.30;99.90
27200;DHT22;14714;48.106;11.546;2023-07-20T04:57:46;18.40;99.90
27200;DHT22;14714;48.106;11.546;2023-07-20T05:00:13;18.40;99.90
27200;DHT22;14714;48.106;11.546;2023-07-20T05:02:40;18.40;99.90
27200;DHT22;14714;48.106;11.546;2023-07-20T05:05:07;18.50;99.90
27200;DHT22;14714;48.106;11.546;2023-07-20T05:07:34;18.50;99.90
27200;DHT22;14714;48.106;11.546;2023-07-20T05:10:01;18.60;99.90
27200;DHT22;14714;48.106;11.546;2023-07-20T05:12:28;18.60;99.90
27200;DHT22;14714;48.106;11.546;2023-07-20T05:14:55;18.60;99.90
27200;DHT22;14714;48.106;11.546;2023-07-20T05:17:21;18.60;99.90
27200;DHT22;14714;48.106;11.546;2023-07-20T05:19:48;18.70;99.90
27200;DHT22;14714;48.106;11.546;2023-07-20T05:22:15;18.70;99.90
27200;DHT22;14714;48.106;11.546;2023-07-20T05:24:42;18.80;99.90
27200;DHT22;14714;48.106;11.546;2023-07-20T05:27:09;18.80;99.90
27200;DHT22;14714;48.106;11.546;2023-07-20T05:29:36;18.80;99.90
27200;DHT22;14714;48.106;11.546;2023-07-20T05:32:03;18.80;99.90
27200;DHT22;14714;48.106;11.546;2023-07-20T05:34:30;18.90;99.90
27200;DHT22;14714;48.106;11.546;2023-07-20T05:37:11;18.90;99.90
27200;DHT22;14714;48.106;11.546;2023-07-20T05:39:40;19.00;99.90
27200;DHT22;14714;48.106;11.546;2023-07-20T05:42:07;19.10;99.90
27200;DHT22;14714;48.106;11.546;2023-07-20T05:44:34;19.10;99.90
27200;DHT22;14714;48.106;11.546;2023-07-20T05:47:01;19.20;99.90
27200;DHT22;14714;48.106;11.546;2023-07-20T05:49:29;19.30;99.90
27200;DHT22;14714;48.106;11.546;2023-07-20T05:51:57;19.30;99.90
27200;DHT22;14714;48.106;11.546;2023-07-20T05:54:27;19.30;99.90
27200;DHT22;14714;48.106;11.546;2023-07-20T05:56:54;19.40;99.90
27200;DHT22;14714;48.106;11.546;2023-07-20T05:59:20;19.30;99.90
27200;DHT22;14714;48.106;11.546;2023-07-20T06:01:47;19.30;99.90
27200;DHT22;14714;48.106;11.546;2023-07-20T06:04:15;19.40;99.90
27200;DHT22;14714;48.106;11.546;2023-07-20T06:06:42;19.40;99.90
27200;DHT22;14714;48.106;11.546;2023-07-20T06:09:09;19.30;99.90
27200;DHT22;14714;48.106;11.546;2023-07-20T06:11:38;19.40;99.90
27200;DHT22;14714;48.106;11.546;2023-07-20T06:14:05;19.60;99.90
27200;DHT22;14714;48.106;11.546;2023-07-20T06:16:32;19.80;99.90
27200;DHT22;14714;48.106;11.546;2023-07-20T06:19:02;20.00;99.90
27200;DHT22;14714;48.106;11.546;2023-07-20T06:21:29;20.20;99.90
27200;DHT22;14714;48.106;11.546;2023-07-20T06:23:56;20.50;99.90
27200;DHT22;14714;48.106;11.546;2023-07-20T06:26:22;20.70;99.90
27200;DHT22;14714;48.106;11.546;2023-07-20T06:28:50;21.00;99.90
27200;DHT22;14714;48.106;11.546;2023-07-20T06:31:17;21.20;99.90
27200;DHT22;14714;48.106;11.546;2023-07-20T06:33:44;21.50;99.10
27200;DHT22;14714;48.106;11.546;2023-07-20T06:36:11;21.60;98.20
27200;DHT22;14714;48.106;11.546;2023-07-20T06:38:37;21.60;96.20
27200;DHT22;14714;48.106;11.546;2023-07-20T06:41:04;21.60;95.90
27200;DHT22;14714;48.106;11.546;2023-07-20T06:43:34;21.60;97.40
27200;DHT22;14714;48.106;11.546;2023-07-20T06:46:04;21.60;97.00
27200;DHT22;14714;48.106;11.546;2023-07-20T06:48:31;21.60;96.70
27200;DHT22;14714;48.106;11.546;2023-07-20T06:50:58;21.50;96.50
27200;DHT22;14714;48.106;11.546;2023-07-20T06:53:25;21.50;96.90
27200;DHT22;14714;48.106;11.546;2023-07-20T06:55:52;21.60;96.90
27200;DHT22;14714;48.106;11.546;2023-07-20T06:58:18;22.00;96.10
27200;DHT22;14714;48.106;11.546;2023-07-20T07:00:45;22.50;96.10
27200;DHT22;14714;48.106;11.546;2023-07-20T07:03:12;23.10;92.50
27200;DHT22;14714;48.106;11.546;2023-07-20T07:05:39;23.30;88.90
27200;DHT22;14714;48.106;11.546;2023-07-20T07:08:06;23.40;88.70
27200;DHT22;14714;48.106;11.546;2023-07-20T07:10:35;23.50;88.60
27200;DHT22;14714;48.106;11.546;2023-07-20T07:13:03;23.80;87.00
27200;DHT22;14714;48.106;11.546;2023-07-20T07:15:31;24.30;87.00
27200;DHT22;14714;48.106;11.546;2023-07-20T07:17:59;25.20;84.70
27200;DHT22;14714;48.106;11.546;2023-07-20T07:20:27;26.30;76.70
27200;DHT22;14714;48.106;11.546;2023-07-20T07:22:54;27.10;71.20
27200;DHT22;14714;48.106;11.546;2023-07-20T07:25:22;27.80;64.40
27200;DHT22;14714;48.106;11.546;2023-07-20T07:27:51;28.70;61.10
27200;DHT22;14714;48.106;11.546;2023-07-20T07:30:19;30.00;57.20
27200;DHT22;14714;48.106;11.546;2023-07-20T07:32:46;30.80;54.40
27200;DHT22;14714;48.106;11.546;2023-07-20T07:35:13;31.10;51.00
27200;DHT22;14714;48.106;11.546;2023-07-20T07:37:40;30.70;48.60
27200;DHT22;14714;48.106;11.546;2023-07-20T07:40:23;29.90;48.40
27200;DHT22;14714;48.106;11.546;2023-07-20T07:42:50;28.70;51.50
27200;DHT22;14714;48.106;11.546;2023-07-20T07:45:17;28.00;54.80
27200;DHT22;14714;48.106;11.546;2023-07-20T07:47:44;27.60;55.20
27200;DHT22;14714;48.106;11.546;2023-07-20T07:50:11;27.50;55.30
27200;DHT22;14714;48.106;11.546;2023-07-20T07:52:38;27.40;56.10
27200;DHT22;14714;48.106;11.546;2023-07-20T07:55:05;27.30;55.10
27200;DHT22;14714;48.106;11.546;2023-07-20T07:57:32;27.20;54.40
27200;DHT22;14714;48.106;11.546;2023-07-20T07:59:58;27.00;54.90
27200;DHT22;14714;48.106;11.546;2023-07-20T08:02:25;26.80;56.80
27200;DHT22;14714;48.106;11.546;2023-07-20T08:04:52;26.60;55.40
27200;DHT22;14714;48.106;11.546;2023-07-20T08:07:19;26.40;59.00
27200;DHT22;14714;48.106;11.546;2023-07-20T08:09:46;26.30;58.50
27200;DHT22;14714;48.106;11.546;2023-07-20T08:12:13;26.50;58.00
27200;DHT22;14714;48.106;11.546;2023-07-20T08:14:40;26.70;57.30
27200;DHT22;14714;48.106;11.546;2023-07-20T08:17:07;26.80;58.80
27200;DHT22;14714;48.106;11.546;2023-07-20T08:19:35;26.70;54.80
27200;DHT22;14714;48.106;11.546;2023-07-20T08:22:06;26.80;55.40
27200;DHT22;14714;48.106;11.546;2023-07-20T08:24:33;27.00;56.00
27200;DHT22;14714;48.106;11.546;2023-07-20T08:27:00;27.40;56.50
27200;DHT22;14714;48.106;11.546;2023-07-20T08:29:27;27.60;54.30
27200;DHT22;14714;48.106;11.546;2023-07-20T08:31:53;27.70;54.00
27200;DHT22;14714;48.106;11.546;2023-07-20T08:34:20;27.60;53.50
27200;DHT22;14714;48.106;11.546;2023-07-20T08:36:58;27.40;53.20
27200;DHT22;14714;48.106;11.546;2023-07-20T08:39:25;27.30;55.70
27200;DHT22;14714;48.106;11.546;2023-07-20T08:41:52;27.20;56.40
27200;DHT22;14714;48.106;11.546;2023-07-20T08:44:19;27.30;55.60
27200;DHT22;14714;48.106;11.546;2023-07-20T08:46:47;27.30;54.70
27200;DHT22;14714;48.106;11.546;2023-07-20T08:49:17;27.40;55.90
27200;DHT22;14714;48.106;11.546;2023-07-20T08:51:46;27.50;56.30
27200;DHT22;14714;48.106;11.546;2023-07-20T08:54:13;27.60;55.40
27200;DHT22;14714;48.106;11.546;2023-07-20T08:56:42;27.70;55.80
27200;DHT22;14714;48.106;11.546;2023-07-20T08:59:09;28.00;54.60
27200;DHT22;14714;48.106;11.546;2023-07-20T09:01:39;28.60;55.00
27200;DHT22;14714;48.106;11.546;2023-07-20T09:04:06;29.40;52.10
27200;DHT22;14714;48.106;11.546;2023-07-20T09:06:34;30.10;51.10
27200;DHT22;14714;48.106;11.546;2023-07-20T09:09:02;31.10;52.20
27200;DHT22;14714;48.106;11.546;2023-07-20T09:11:29;32.10;48.40
27200;DHT22;14714;48.106;11.546;2023-07-20T09:14:04;32.90;45.80
27200;DHT22;14714;48.106;11.546;2023-07-20T09:16:31;32.80;44.80
27200;DHT22;14714;48.106;11.546;2023-07-20T09:18:59;32.70;44.80
27200;DHT22;14714;48.106;11.546;2023-07-20T09:21:30;33.10;44.80
27200;DHT22;14714;48.106;11.546;2023-07-20T09:24:00;33.80;43.40
27200;DHT22;14714;48.106;11.546;2023-07-20T09:26:27;34.60;43.30
27200;DHT22;14714;48.106;11.546;2023-07-20T09:28:54;35.40;39.90
27200;DHT22;14714;48.106;11.546;2023-07-20T09:31:23;35.80;38.80
27200;DHT22;14714;48.106;11.546;2023-07-20T09:33:52;35.80;39.80
27200;DHT22;14714;48.106;11.546;2023-07-20T09:36:22;35.70;38.50
27200;DHT22;14714;48.106;11.546;2023-07-20T09:39:08;35.60;35.50
27200;DHT22;14714;48.106;11.546;2023-07-20T09:41:42;35.80;37.90
27200;DHT22;14714;48.106;11.546;2023-07-20T09:44:14;36.00;35.00
27200;DHT22;14714;48.106;11.546;2023-07-20T09:46:45;35.90;38.50
27200;DHT22;14714;48.106;11.546;2023-07-20T09:49:17;35.80;37.20
27200;DHT22;14714;48.106;11.546;2023-07-20T09:51:47;36.00;35.30
27200;DHT22;14714;48.106;11.546;2023-07-20T09:54:15;35.70;35.30
27200;DHT22;14714;48.106;11.546;2023-07-20T09:56:43;34.90;36.90
27200;DHT22;14714;48.106;11.546;2023-07-20T09:59:10;34.20;40.10
27200;DHT22;14714;48.106;11.546;2023-07-20T10:01:41;33.50;36.40
27200;DHT22;14714;48.106;11.546;2023-07-20T10:04:09;32.60;39.90
27200;DHT22;14714;48.106;11.546;2023-07-20T10:06:42;32.20;41.30
27200;DHT22;14714;48.106;11.546;2023-07-20T10:09:10;32.20;42.10
27200;DHT22;14714;48.106;11.546;2023-07-20T10:11:45;32.00;40.70
27200;DHT22;14714;48.106;11.546;2023-07-20T10:14:20;31.60;41.40
27200;DHT22;14714;48.106;11.546;2023-07-20T10:16:50;30.90;42.10
27200;DHT22;14714;48.106;11.546;2023-07-20T10:19:33;30.40;44.10
27200;DHT22;14714;48.106;11.546;2023-07-20T10:22:03;29.90;45.90
27200;DHT22;14714;48.106;11.546;2023-07-20T10:24:36;29.40;46.60
27200;DHT22;14714;48.106;11.546;2023-07-20T10:27:04;28.90;46.30
27200;DHT22;14714;48.106;11.546;2023-07-20T10:29:31;28.50;48.40
27200;DHT22;14714;48.106;11.546;2023-07-20T10:32:00;27.90;49.00
27200;DHT22;14714;48.106;11.546;2023-07-20T10:34:28;27.60;50.00
27200;DHT22;14714;48.106;11.546;2023-07-20T10:36:54;27.20;50.30
27200;DHT22;14714;48.106;11.546;2023-07-20T10:39:26;27.10;52.20
27200;DHT22;14714;48.106;11.546;2023-07-20T10:42:01;27.40;50.30
27200;DHT22;14714;48.106;11.546;2023-07-20T10:44:30;27.60;50.40
27200;DHT22;14714;48.106;11.546;2023-07-20T10:47:01;27.80;50.20
27200;DHT22;14714;48.106;11.546;2023-07-20T10:49:33;28.00;48.90
27200;DHT22;14714;48.106;11.546;2023-07-20T10:52:04;28.10;49.90
27200;DHT22;14714;48.106;11.546;2023-07-20T10:57:28;28.10;48.80
27200;DHT22;14714;48.106;11.546;2023-07-20T11:00:11;28.00;50.60
27200;DHT22;14714;48.106;11.546;2023-07-20T11:02:46;27.90;50.10
27200;DHT22;14714;48.106;11.546;2023-07-20T11:05:32;27.70;50.20
27200;DHT22;14714;48.106;11.546;2023-07-20T11:08:03;27.70;51.90
27200;DHT22;14714;48.106;11.546;2023-07-20T11:10:31;28.00;52.50
27200;DHT22;14714;48.106;11.546;2023-07-20T11:13:23;28.50;50.20
27200;DHT22;14714;48.106;11.546;2023-07-20T11:18:28;29.50;48.20
27200;DHT22;14714;48.106;11.546;2023-07-20T11:20:55;29.80;48.30
27200;DHT22;14714;48.106;11.546;2023-07-20T11:23:22;30.20;48.30
27200;DHT22;14714;48.106;11.546;2023-07-20T11:25:50;30.40;46.10
27200;DHT22;14714;48.106;11.546;2023-07-20T11:28:17;30.20;45.10
27200;DHT22;14714;48.106;11.546;2023-07-20T11:30:43;29.90;45.10
27200;DHT22;14714;48.106;11.546;2023-07-20T11:33:10;29.60;47.10
27200;DHT22;14714;48.106;11.546;2023-07-20T11:35:48;29.40;45.70
27200;DHT22;14714;48.106;11.546;2023-07-20T11:38:16;29.30;47.40
27200;DHT22;14714;48.106;11.546;2023-07-20T11:40:46;29.00;45.90
27200;DHT22;14714;48.106;11.546;2023-07-20T11:43:13;28.80;45.70
27200;DHT22;14714;48.106;11.546;2023-07-20T11:45:44;28.60;47.00
27200;DHT22;14714;48.106;11.546;2023-07-20T11:48:15;28.20;47.20
27200;DHT22;14714;48.106;11.546;2023-07-20T11:50:43;28.10;48.30
27200;DHT22;14714;48.106;11.546;2023-07-20T11:53:10;28.10;48.40
27200;DHT22;14714;48.106;11.546;2023-07-20T11:55:38;28.20;48.30
27200;DHT22;14714;48.106;11.546;2023-07-20T11:58:06;28.30;46.80
27200;DHT22;14714;48.106;11.546;2023-07-20T12:00:33;28.20;48.30
27200;DHT22;14714;48.106;11.546;2023-07-20T12:03:01;28.00;46.40
27200;DHT22;14714;48.106;11.546;2023-07-20T12:05:28;27.80;47.70
27200;DHT22;14714;48.106;11.546;2023-07-20T12:07:55;27.50;49.30
27200;DHT22;14714;48.106;11.546;2023-07-20T12:10:27;27.40;49.70
27200;DHT22;14714;48.106;11.546;2023-07-20T12:13:00;27.40;51.00
27200;DHT22;14714;48.106;11.546;2023-07-20T12:15:27;27.40;49.10
27200;DHT22;14714;48.106;11.546;2023-07-20T12:18:00;27.40;50.60
27200;DHT22;14714;48.106;11.546;2023-07-20T12:20:33;27.30;49.80
27200;DHT22;14714;48.106;11.546;2023-07-20T12:23:09;27.20;50.00
27200;DHT22;14714;48.106;11.546;2023-07-20T12:25:42;27.10;49.50
27200;DHT22;14714;48.106;11.546;2023-07-20T12:28:11;27.00;51.10
27200;DHT22;14714;48.106;11.546;2023-07-20T12:30:39;26.80;50.40
27200;DHT22;14714;48.106;11.546;2023-07-20T12:33:07;26.80;51.00
27200;DHT22;14714;48.106;11.546;2023-07-20T12:35:34;27.00;51.10
27200;DHT22;14714;48.106;11.546;2023-07-20T12:38:01;27.20;52.70
27200;DHT22;14714;48.106;11.546;2023-07-20T12:40:28;27.30;50.60
27200;DHT22;14714;48.106;11.546;2023-07-20T12:42:55;27.20;50.50
27200;DHT22;14714;48.106;11.546;2023-07-20T12:45:22;26.90;49.90
27200;DHT22;14714;48.106;11.546;2023-07-20T12:47:49;26.70;50.90
27200;DHT22;14714;48.106;11.546;2023-07-20T12:50:16;26.50;52.10
27200;DHT22;14714;48.106;11.546;2023-07-20T12:52:43;26.20;51.70
27200;DHT22;14714;48.106;11.546;2023-07-20T12:55:10;26.00;52.20
27200;DHT22;14714;48.106;11.546;2023-07-20T12:57:37;25.90;53.10
27200;DHT22;14714;48.106;11.546;2023-07-20T13:00:06;25.80;53.20
27200;DHT22;14714;48.106;11.546;2023-07-20T13:02:37;25.90;53.70
27200;DHT22;14714;48.106;11.546;2023-07-20T13:05:05;26.10;52.90
27200;DHT22;14714;48.106;11.546;2023-07-20T13:07:37;26.20;52.30
27200;DHT22;14714;48.106;11.546;2023-07-20T13:10:08;26.40;51.70
27200;DHT22;14714;48.106;11.546;2023-07-20T13:12:36;26.50;51.80
27200;DHT22;14714;48.106;11.546;2023-07-20T13:15:07;26.50;51.40
27200;DHT22;14714;48.106;11.546;2023-07-20T13:17:35;26.50;52.20
27200;DHT22;14714;48.106;11.546;2023-07-20T13:20:03;26.40;52.70
27200;DHT22;14714;48.106;11.546;2023-07-20T13:22:34;26.20;51.40
27200;DHT22;14714;48.106;11.546;2023-07-20T13:25:01;26.20;52.00
27200;DHT22;14714;48.106;11.546;2023-07-20T13:27:29;26.30;52.30
27200;DHT22;14714;48.106;11.546;2023-07-20T13:29:59;26.40;51.10
27200;DHT22;14714;48.106;11.546;2023-07-20T13:32:29;26.40;51.20
27200;DHT22;14714;48.106;11.546;2023-07-20T13:35:00;26.50;50.90
27200;DHT22;14714;48.106;11.546;2023-07-20T13:37:27;26.50;50.50
27200;DHT22;14714;48.106;11.546;2023-07-20T13:39:55;26.50;50.90
27200;DHT22;14714;48.106;11.546;2023-07-20T13:42:23;26.60;51.60
27200;DHT22;14714;48.106;11.546;2023-07-20T13:44:50;26.60;50.90
27200;DHT22;14714;48.106;11.546;2023-07-20T13:47:17;26.50;52.20
27200;DHT22;14714;48.106;11.546;2023-07-20T13:49:47;26.50;52.30
27200;DHT22;14714;48.106;11.546;2023-07-20T13:52:14;26.40;51.00
27200;DHT22;14714;48.106;11.546;2023-07-20T13:54:44;26.30;52.40
27200;DHT22;14714;48.106;11.546;2023-07-20T13:57:16;26.30;52.20
27200;DHT22;14714;48.106;11.546;2023-07-20T13:59:44;26.30;50.70
27200;DHT22;14714;48.106;11.546;2023-07-20T14:02:13;26.30;51.10
27200;DHT22;14714;48.106;11.546;2023-07-20T14:04:43;26.40;49.20
27200;DHT22;14714;48.106;11.546;2023-07-20T14:07:10;26.50;51.00
27200;DHT22;14714;48.106;11.546;2023-07-20T14:09:38;26.60;50.80
27200;DHT22;14714;48.106;11.546;2023-07-20T14:12:25;26.70;49.00
27200;DHT22;14714;48.106;11.546;2023-07-20T14:14:51;26.70;50.30
27200;DHT22;14714;48.106;11.546;2023-07-20T14:17:18;26.80;49.70
27200;DHT22;14714;48.106;11.546;2023-07-20T14:19:45;26.70;49.20
27200;DHT22;14714;48.106;11.546;2023-07-20T14:22:12;26.70;51.90
27200;DHT22;14714;48.106;11.546;2023-07-20T14:24:39;26.70;50.80
27200;DHT22;14714;48.106;11.546;2023-07-20T14:27:06;26.60;49.60
27200;DHT22;14714;48.106;11.546;2023-07-20T14:29:33;26.50;50.30
27200;DHT22;14714;48.106;11.546;2023-07-20T14:32:03;26.40;49.50
27200;DHT22;14714;48.106;11.546;2023-07-20T14:34:32;26.30;51.10
27200;DHT22;14714;48.106;11.546;2023-07-20T14:37:03;26.30;50.10
27200;DHT22;14714;48.106;11.546;2023-07-20T14:39:30;26.10;50.10
27200;DHT22;14714;48.106;11.546;2023-07-20T14:41:58;26.10;50.90
27200;DHT22;14714;48.106;11.546;2023-07-20T14:44:25;26.00;52.10
27200;DHT22;14714;48.106;11.546;2023-07-20T14:46:51;25.80;51.70
27200;DHT22;14714;48.106;11.546;2023-07-20T14:49:37;25.70;51.70
27200;DHT22;14714;48.106;11.546;2023-07-20T14:52:04;25.70;52.20
27200;DHT22;14714;48.106;11.546;2023-07-20T14:54:41;25.60;51.30
27200;DHT22;14714;48.106;11.546;2023-07-20T14:57:08;25.60;51.00
27200;DHT22;14714;48.106;11.546;2023-07-20T14:59:41;25.60;51.40
27200;DHT22;14714;48.106;11.546;2023-07-20T15:02:08;25.60;51.90
27200;DHT22;14714;48.106;11.546;2023-07-20T15:04:35;25.50;52.10
27200;DHT22;14714;48.106;11.546;2023-07-20T15:07:02;25.50;52.40
27200;DHT22;14714;48.106;11.546;2023-07-20T15:09:29;25.40;52.20
27200;DHT22;14714;48.106;11.546;2023-07-20T15:11:56;25.50;52.80
27200;DHT22;14714;48.106;11.546;2023-07-20T15:14:23;25.50;51.70
27200;DHT22;14714;48.106;11.546;2023-07-20T15:16:50;25.30;52.80
27200;DHT22;14714;48.106;11.546;2023-07-20T15:19:16;25.20;52.20
27200;DHT22;14714;48.106;11.546;2023-07-20T15:21:43;25.20;52.10
27200;DHT22;14714;48.106;11.546;2023-07-20T15:24:10;25.20;52.00
27200;DHT22;14714;48.106;11.546;2023-07-20T15:26:38;25.30;51.90
27200;DHT22;14714;48.106;11.546;2023-07-20T15:29:05;25.20;51.40
27200;DHT22;14714;48.106;11.546;2023-07-20T15:31:32;25.10;55.00
27200;DHT22;14714;48.106;11.546;2023-07-20T15:34:02;25.00;54.10
27200;DHT22;14714;48.106;11.546;2023-07-20T15:36:28;24.80;53.10
27200;DHT22;14714;48.106;11.546;2023-07-20T15:38:55;24.70;55.40
27200;DHT22;14714;48.106;11.546;2023-07-20T15:41:22;24.60;54.20
27200;DHT22;14714;48.106;11.546;2023-07-20T15:43:50;24.60;53.30